Hartford, Connecticut
Current Conditions -  °F | °C
As of 5:53 PM on Wednesday 22 Oct 2014 (Local Time) from KHFD Reporting Station
Overcast Overcast  
Wind Chill: 11°   Ceiling: 1900
Heat Index: 11°   Visibility: 10mi
Dew Point:   Wind: 18mph
Humidity: 83%   Direction: 10°N
Pressure: 29.86"   Gusts: 31mph
Location:  41.76°N, 72.67°W
Report Text: KHFD 222153Z 01016G27KT 10SM OVC019 11/08 A2986 RMK AO2 PK WND 36027/2152 SLP111 T01110083
Loading
Personal Weather Stations






























Interactive Weather Map
Tropical Storm Tracking
New forecast layout! Learn more

10-Day Weather Forecast

Advertisements
Track Severe Weather on mobile